sensor_id;sensor_type;location;lat;lon;timestamp;temperature;humidity
14357;DHT22;7262;48.764;9.166;2023-05-07T00:00:39;14.20;99.90
14357;DHT22;7262;48.764;9.166;2023-05-07T00:03:07;14.10;99.90
14357;DHT22;7262;48.764;9.166;2023-05-07T00:05:38;14.20;99.90
14357;DHT22;7262;48.764;9.166;2023-05-07T00:08:04;14.10;99.90
14357;DHT22;7262;48.764;9.166;2023-05-07T00:10:31;14.10;99.90
14357;DHT22;7262;48.764;9.166;2023-05-07T00:12:58;14.10;99.90
14357;DHT22;7262;48.764;9.166;2023-05-07T00:15:24;14.10;99.90
14357;DHT22;7262;48.764;9.166;2023-05-07T00:17:51;14.10;99.90
14357;DHT22;7262;48.764;9.166;2023-05-07T00:20:18;14.10;99.90
14357;DHT22;7262;48.764;9.166;2023-05-07T00:22:46;14.00;99.90
14357;DHT22;7262;48.764;9.166;2023-05-07T00:25:15;13.90;99.90
14357;DHT22;7262;48.764;9.166;2023-05-07T00:27:42;13.90;99.90
14357;DHT22;7262;48.764;9.166;2023-05-07T00:30:09;13.90;99.90
14357;DHT22;7262;48.764;9.166;2023-05-07T00:32:36;13.90;99.90
14357;DHT22;7262;48.764;9.166;2023-05-07T00:35:03;13.80;99.90
14357;DHT22;7262;48.764;9.166;2023-05-07T00:37:30;13.90;99.90
14357;DHT22;7262;48.764;9.166;2023-05-07T00:39:58;13.80;99.90
14357;DHT22;7262;48.764;9.166;2023-05-07T00:42:25;13.80;99.90
14357;DHT22;7262;48.764;9.166;2023-05-07T00:44:54;13.80;99.90
14357;DHT22;7262;48.764;9.166;2023-05-07T00:47:21;13.80;99.90
14357;DHT22;7262;48.764;9.166;2023-05-07T00:49:48;13.70;99.90
14357;DHT22;7262;48.764;9.166;2023-05-07T00:52:15;13.70;99.90
14357;DHT22;7262;48.764;9.166;2023-05-07T00:54:42;13.60;99.90
14357;DHT22;7262;48.764;9.166;2023-05-07T00:57:10;13.50;99.90
14357;DHT22;7262;48.764;9.166;2023-05-07T00:59:39;13.50;99.90
14357;DHT22;7262;48.764;9.166;2023-05-07T01:02:06;13.50;99.90
14357;DHT22;7262;48.764;9.166;2023-05-07T01:04:34;13.50;99.90
14357;DHT22;7262;48.764;9.166;2023-05-07T01:07:00;13.50;99.90
14357;DHT22;7262;48.764;9.166;2023-05-07T01:09:28;13.50;99.90
14357;DHT22;7262;48.764;9.166;2023-05-07T01:11:55;13.40;99.90
14357;DHT22;7262;48.764;9.166;2023-05-07T01:14:24;13.40;99.90
14357;DHT22;7262;48.764;9.166;2023-05-07T01:16:51;13.30;99.90
14357;DHT22;7262;48.764;9.166;2023-05-07T01:19:18;13.30;99.90
14357;DHT22;7262;48.764;9.166;2023-05-07T01:21:47;13.30;99.90
14357;DHT22;7262;48.764;9.166;2023-05-07T01:24:15;13.20;99.90
14357;DHT22;7262;48.764;9.166;2023-05-07T01:26:43;13.30;99.90
14357;DHT22;7262;48.764;9.166;2023-05-07T01:29:13;13.30;99.90
14357;DHT22;7262;48.764;9.166;2023-05-07T01:31:40;13.30;99.90
14357;DHT22;7262;48.764;9.166;2023-05-07T01:34:08;13.30;99.90
14357;DHT22;7262;48.764;9.166;2023-05-07T01:36:38;13.40;99.90
14357;DHT22;7262;48.764;9.166;2023-05-07T01:39:05;13.30;99.90
14357;DHT22;7262;48.764;9.166;2023-05-07T01:41:36;13.30;99.90
14357;DHT22;7262;48.764;9.166;2023-05-07T01:44:03;13.30;99.90
14357;DHT22;7262;48.764;9.166;2023-05-07T01:46:32;13.10;99.90
14357;DHT22;7262;48.764;9.166;2023-05-07T01:48:59;13.10;99.90
14357;DHT22;7262;48.764;9.166;2023-05-07T01:51:26;13.10;99.90
14357;DHT22;7262;48.764;9.166;2023-05-07T01:53:53;13.00;99.90
14357;DHT22;7262;48.764;9.166;2023-05-07T01:56:20;13.00;99.90
14357;DHT22;7262;48.764;9.166;2023-05-07T01:58:51;13.00;99.90
14357;DHT22;7262;48.764;9.166;2023-05-07T02:01:17;13.10;99.90
14357;DHT22;7262;48.764;9.166;2023-05-07T02:06:14;13.10;99.90
14357;DHT22;7262;48.764;9.166;2023-05-07T02:08:41;13.10;99.90
14357;DHT22;7262;48.764;9.166;2023-05-07T02:11:17;13.10;99.90
14357;DHT22;7262;48.764;9.166;2023-05-07T02:13:43;13.20;99.90
14357;DHT22;7262;48.764;9.166;2023-05-07T02:16:11;13.20;99.90
14357;DHT22;7262;48.764;9.166;2023-05-07T02:18:39;13.20;99.90
14357;DHT22;7262;48.764;9.166;2023-05-07T02:21:06;13.20;99.90
14357;DHT22;7262;48.764;9.166;2023-05-07T02:23:33;13.20;99.90
14357;DHT22;7262;48.764;9.166;2023-05-07T02:26:00;13.10;99.90
14357;DHT22;7262;48.764;9.166;2023-05-07T02:28:27;13.10;99.90
14357;DHT22;7262;48.764;9.166;2023-05-07T02:30:54;13.00;99.90
14357;DHT22;7262;48.764;9.166;2023-05-07T02:33:25;13.00;99.90
14357;DHT22;7262;48.764;9.166;2023-05-07T02:35:51;13.00;99.90
14357;DHT22;7262;48.764;9.166;2023-05-07T02:38:18;13.00;99.90
14357;DHT22;7262;48.764;9.166;2023-05-07T02:40:45;13.00;99.90
14357;DHT22;7262;48.764;9.166;2023-05-07T02:43:12;13.00;99.90
14357;DHT22;7262;48.764;9.166;2023-05-07T02:45:40;13.00;99.90
14357;DHT22;7262;48.764;9.166;2023-05-07T02:48:08;12.90;99.90
14357;DHT22;7262;48.764;9.166;2023-05-07T02:50:36;12.90;99.90
14357;DHT22;7262;48.764;9.166;2023-05-07T02:53:03;12.80;99.90
14357;DHT22;7262;48.764;9.166;2023-05-07T02:55:30;12.80;99.90
14357;DHT22;7262;48.764;9.166;2023-05-07T02:57:56;12.70;99.90
14357;DHT22;7262;48.764;9.166;2023-05-07T03:00:23;12.60;99.90
14357;DHT22;7262;48.764;9.166;2023-05-07T03:05:26;12.60;99.90
14357;DHT22;7262;48.764;9.166;2023-05-07T03:07:54;12.60;99.90
14357;DHT22;7262;48.764;9.166;2023-05-07T03:21:04;12.60;99.90
14357;DHT22;7262;48.764;9.166;2023-05-07T03:23:31;12.40;99.90
14357;DHT22;7262;48.764;9.166;2023-05-07T03:25:58;12.40;99.90
14357;DHT22;7262;48.764;9.166;2023-05-07T03:28:24;12.40;99.90
14357;DHT22;7262;48.764;9.166;2023-05-07T03:30:51;12.40;99.90
14357;DHT22;7262;48.764;9.166;2023-05-07T03:33:18;12.30;99.90
14357;DHT22;7262;48.764;9.166;2023-05-07T03:35:45;12.20;99.90
14357;DHT22;7262;48.764;9.166;2023-05-07T03:38:15;12.20;99.90
14357;DHT22;7262;48.764;9.166;2023-05-07T03:40:42;12.20;99.90
14357;DHT22;7262;48.764;9.166;2023-05-07T03:43:08;12.20;99.90
14357;DHT22;7262;48.764;9.166;2023-05-07T03:45:35;12.10;99.90
14357;DHT22;7262;48.764;9.166;2023-05-07T03:48:02;12.20;99.90
14357;DHT22;7262;48.764;9.166;2023-05-07T03:50:29;12.20;99.90
14357;DHT22;7262;48.764;9.166;2023-05-07T03:52:56;12.20;99.90
14357;DHT22;7262;48.764;9.166;2023-05-07T03:55:24;12.20;99.90
14357;DHT22;7262;48.764;9.166;2023-05-07T03:57:51;12.20;99.90
14357;DHT22;7262;48.764;9.166;2023-05-07T04:00:18;12.20;99.90
14357;DHT22;7262;48.764;9.166;2023-05-07T04:02:45;12.20;99.90
14357;DHT22;7262;48.764;9.166;2023-05-07T04:05:12;12.10;99.90
14357;DHT22;7262;48.764;9.166;2023-05-07T04:07:40;12.10;99.90
14357;DHT22;7262;48.764;9.166;2023-05-07T04:10:06;12.10;99.90
14357;DHT22;7262;48.764;9.166;2023-05-07T04:15:07;12.10;99.90
14357;DHT22;7262;48.764;9.166;2023-05-07T04:25:17;12.10;99.90
14357;DHT22;7262;48.764;9.166;2023-05-07T04:27:44;12.00;99.90
14357;DHT22;7262;48.764;9.166;2023-05-07T04:30:12;12.00;99.90
14357;DHT22;7262;48.764;9.166;2023-05-07T04:32:40;12.10;99.90
14357;DHT22;7262;48.764;9.166;2023-05-07T04:35:08;12.10;99.90
14357;DHT22;7262;48.764;9.166;2023-05-07T04:37:34;12.20;99.90
14357;DHT22;7262;48.764;9.166;2023-05-07T04:40:01;12.10;99.90
14357;DHT22;7262;48.764;9.166;2023-05-07T04:42:29;12.20;99.90
14357;DHT22;7262;48.764;9.166;2023-05-07T04:44:56;12.10;99.90
14357;DHT22;7262;48.764;9.166;2023-05-07T04:47:25;12.20;99.90
14357;DHT22;7262;48.764;9.166;2023-05-07T04:49:51;12.20;99.90
14357;DHT22;7262;48.764;9.166;2023-05-07T04:52:18;12.10;99.90
14357;DHT22;7262;48.764;9.166;2023-05-07T04:54:46;12.10;99.90
14357;DHT22;7262;48.764;9.166;2023-05-07T04:57:13;12.10;99.90
14357;DHT22;7262;48.764;9.166;2023-05-07T04:59:40;12.10;99.90
14357;DHT22;7262;48.764;9.166;2023-05-07T05:02:07;12.10;99.90
14357;DHT22;7262;48.764;9.166;2023-05-07T05:04:36;12.20;99.90
14357;DHT22;7262;48.764;9.166;2023-05-07T05:07:03;12.30;99.90
14357;DHT22;7262;48.764;9.166;2023-05-07T05:09:30;12.40;99.90
14357;DHT22;7262;48.764;9.166;2023-05-07T05:11:56;12.40;99.90
14357;DHT22;7262;48.764;9.166;2023-05-07T05:14:23;12.50;99.90
14357;DHT22;7262;48.764;9.166;2023-05-07T05:16:50;12.50;99.90
14357;DHT22;7262;48.764;9.166;2023-05-07T05:19:17;12.50;99.90
14357;DHT22;7262;48.764;9.166;2023-05-07T05:21:45;12.50;99.90
14357;DHT22;7262;48.764;9.166;2023-05-07T05:24:12;12.60;99.90
14357;DHT22;7262;48.764;9.166;2023-05-07T05:26:39;12.80;99.90
14357;DHT22;7262;48.764;9.166;2023-05-07T05:29:06;13.40;99.90
14357;DHT22;7262;48.764;9.166;2023-05-07T05:31:34;14.50;99.90
14357;DHT22;7262;48.764;9.166;2023-05-07T05:34:02;15.60;99.90
14357;DHT22;7262;48.764;9.166;2023-05-07T05:36:28;16.70;99.90
14357;DHT22;7262;48.764;9.166;2023-05-07T05:38:59;17.30;99.90
14357;DHT22;7262;48.764;9.166;2023-05-07T05:41:26;18.00;99.90
14357;DHT22;7262;48.764;9.166;2023-05-07T05:43:57;18.80;99.90
14357;DHT22;7262;48.764;9.166;2023-05-07T05:46:24;19.40;99.90
14357;DHT22;7262;48.764;9.166;2023-05-07T05:48:54;20.20;99.90
14357;DHT22;7262;48.764;9.166;2023-05-07T05:51:21;21.00;99.90
14357;DHT22;7262;48.764;9.166;2023-05-07T05:53:48;21.30;99.90
14357;DHT22;7262;48.764;9.166;2023-05-07T05:56:17;21.30;99.90
14357;DHT22;7262;48.764;9.166;2023-05-07T05:58:45;21.30;99.90
14357;DHT22;7262;48.764;9.166;2023-05-07T06:01:11;22.20;99.90
14357;DHT22;7262;48.764;9.166;2023-05-07T06:03:38;22.40;99.90
14357;DHT22;7262;48.764;9.166;2023-05-07T06:06:05;22.80;99.90
14357;DHT22;7262;48.764;9.166;2023-05-07T06:08:32;23.30;99.90
14357;DHT22;7262;48.764;9.166;2023-05-07T06:11:01;23.40;99.90
14357;DHT22;7262;48.764;9.166;2023-05-07T06:13:30;23.50;99.90
14357;DHT22;7262;48.764;9.166;2023-05-07T06:18:47;24.70;99.90
14357;DHT22;7262;48.764;9.166;2023-05-07T06:21:14;25.30;99.90
14357;DHT22;7262;48.764;9.166;2023-05-07T06:23:41;25.20;99.90
14357;DHT22;7262;48.764;9.166;2023-05-07T06:26:08;24.20;99.90
14357;DHT22;7262;48.764;9.166;2023-05-07T06:28:40;23.90;99.90
14357;DHT22;7262;48.764;9.166;2023-05-07T06:31:19;23.10;99.90
14357;DHT22;7262;48.764;9.166;2023-05-07T06:33:46;21.90;99.90
14357;DHT22;7262;48.764;9.166;2023-05-07T06:36:14;20.50;99.90
14357;DHT22;7262;48.764;9.166;2023-05-07T06:38:41;19.80;99.90
14357;DHT22;7262;48.764;9.166;2023-05-07T06:41:08;19.40;99.90
14357;DHT22;7262;48.764;9.166;2023-05-07T06:46:13;19.90;99.90
14357;DHT22;7262;48.764;9.166;2023-05-07T06:51:26;20.40;99.90
14357;DHT22;7262;48.764;9.166;2023-05-07T06:53:54;20.90;99.90
14357;DHT22;7262;48.764;9.166;2023-05-07T06:56:22;21.30;99.90
14357;DHT22;7262;48.764;9.166;2023-05-07T06:58:52;22.40;99.90
14357;DHT22;7262;48.764;9.166;2023-05-07T07:01:20;23.50;99.90
14357;DHT22;7262;48.764;9.166;2023-05-07T07:06:25;24.00;99.90
14357;DHT22;7262;48.764;9.166;2023-05-07T07:08:54;24.60;99.90
14357;DHT22;7262;48.764;9.166;2023-05-07T07:11:21;24.60;99.90
14357;DHT22;7262;48.764;9.166;2023-05-07T07:13:48;24.90;99.90
14357;DHT22;7262;48.764;9.166;2023-05-07T07:16:15;25.10;99.90
14357;DHT22;7262;48.764;9.166;2023-05-07T07:21:28;25.00;99.90
14357;DHT22;7262;48.764;9.166;2023-05-07T07:23:55;24.70;99.90
14357;DHT22;7262;48.764;9.166;2023-05-07T07:26:23;25.70;99.90
14357;DHT22;7262;48.764;9.166;2023-05-07T07:28:53;25.80;99.90
14357;DHT22;7262;48.764;9.166;2023-05-07T07:31:20;27.20;99.90
14357;DHT22;7262;48.764;9.166;2023-05-07T07:33:49;28.20;99.90
14357;DHT22;7262;48.764;9.166;2023-05-07T07:36:16;28.50;99.90
14357;DHT22;7262;48.764;9.166;2023-05-07T07:38:44;28.50;99.90
14357;DHT22;7262;48.764;9.166;2023-05-07T07:41:11;28.10;99.90
14357;DHT22;7262;48.764;9.166;2023-05-07T07:43:37;27.50;99.90
14357;DHT22;7262;48.764;9.166;2023-05-07T07:48:42;29.20;99.90
14357;DHT22;7262;48.764;9.166;2023-05-07T07:51:17;29.90;99.90
14357;DHT22;7262;48.764;9.166;2023-05-07T08:30:47;28.50;99.90
14357;DHT22;7262;48.764;9.166;2023-05-07T08:33:16;29.60;99.90
14357;DHT22;7262;48.764;9.166;2023-05-07T08:35:43;29.50;99.90
14357;DHT22;7262;48.764;9.166;2023-05-07T08:38:10;29.10;99.90
14357;DHT22;7262;48.764;9.166;2023-05-07T08:40:39;29.20;99.90
14357;DHT22;7262;48.764;9.166;2023-05-07T08:48:19;27.70;99.90
14357;DHT22;7262;48.764;9.166;2023-05-07T08:50:50;27.70;99.90
14357;DHT22;7262;48.764;9.166;2023-05-07T08:53:17;28.30;99.90
14357;DHT22;7262;48.764;9.166;2023-05-07T08:55:45;28.80;99.90
14357;DHT22;7262;48.764;9.166;2023-05-07T09:03:32;29.60;99.90
14357;DHT22;7262;48.764;9.166;2023-05-07T09:06:00;30.00;99.90
14357;DHT22;7262;48.764;9.166;2023-05-07T09:11:03;30.70;99.90
14357;DHT22;7262;48.764;9.166;2023-05-07T09:13:31;30.20;99.90
14357;DHT22;7262;48.764;9.166;2023-05-07T09:15:59;30.50;99.90
14357;DHT22;7262;48.764;9.166;2023-05-07T09:23:49;31.00;99.90
14357;DHT22;7262;48.764;9.166;2023-05-07T09:26:20;31.10;99.90
14357;DHT22;7262;48.764;9.166;2023-05-07T09:46:56;30.90;99.90
14357;DHT22;7262;48.764;9.166;2023-05-07T09:49:25;31.10;99.90
14357;DHT22;7262;48.764;9.166;2023-05-07T09:51:56;30.90;99.90
14357;DHT22;7262;48.764;9.166;2023-05-07T09:54:27;30.70;99.90
14357;DHT22;7262;48.764;9.166;2023-05-07T09:56:54;30.80;99.90
14357;DHT22;7262;48.764;9.166;2023-05-07T09:59:22;31.10;99.90
14357;DHT22;7262;48.764;9.166;2023-05-07T10:01:53;30.90;99.90
14357;DHT22;7262;48.764;9.166;2023-05-07T10:04:24;31.00;99.90
14357;DHT22;7262;48.764;9.166;2023-05-07T10:06:51;31.10;99.90
14357;DHT22;7262;48.764;9.166;2023-05-07T10:09:19;31.00;99.90
14357;DHT22;7262;48.764;9.166;2023-05-07T10:11:47;30.60;99.90
14357;DHT22;7262;48.764;9.166;2023-05-07T10:14:15;29.90;99.90
14357;DHT22;7262;48.764;9.166;2023-05-07T10:19:17;29.80;99.90
14357;DHT22;7262;48.764;9.166;2023-05-07T10:21:54;30.10;99.90
14357;DHT22;7262;48.764;9.166;2023-05-07T10:24:26;30.20;99.90
14357;DHT22;7262;48.764;9.166;2023-05-07T10:26:55;29.90;99.90
14357;DHT22;7262;48.764;9.166;2023-05-07T10:29:25;29.90;99.90
14357;DHT22;7262;48.764;9.166;2023-05-07T10:31:57;30.30;99.90
14357;DHT22;7262;48.764;9.166;2023-05-07T10:34:27;30.80;99.90
14357;DHT22;7262;48.764;9.166;2023-05-07T10:36:56;31.20;99.60
14357;DHT22;7262;48.764;9.166;2023-05-07T10:39:23;31.40;99.40
14357;DHT22;7262;48.764;9.166;2023-05-07T10:41:50;31.40;99.50
14357;DHT22;7262;48.764;9.166;2023-05-07T10:44:26;30.60;99.80
14357;DHT22;7262;48.764;9.166;2023-05-07T10:49:29;30.20;99.90
14357;DHT22;7262;48.764;9.166;2023-05-07T10:52:13;29.50;99.90
14357;DHT22;7262;48.764;9.166;2023-05-07T10:54:41;29.20;99.90
14357;DHT22;7262;48.764;9.166;2023-05-07T10:59:53;29.50;99.90
14357;DHT22;7262;48.764;9.166;2023-05-07T11:02:20;29.20;99.90
14357;DHT22;7262;48.764;9.166;2023-05-07T11:04:52;28.90;99.90
14357;DHT22;7262;48.764;9.166;2023-05-07T11:07:40;29.30;99.90
14357;DHT22;7262;48.764;9.166;2023-05-07T11:10:09;29.10;99.90
14357;DHT22;7262;48.764;9.166;2023-05-07T11:12:52;29.10;99.90
14357;DHT22;7262;48.764;9.166;2023-05-07T11:15:41;28.70;99.90
14357;DHT22;7262;48.764;9.166;2023-05-07T11:18:09;28.00;99.90
14357;DHT22;7262;48.764;9.166;2023-05-07T11:20:50;27.70;99.90
14357;DHT22;7262;48.764;9.166;2023-05-07T11:26:05;26.80;99.90
14357;DHT22;7262;48.764;9.166;2023-05-07T11:28:36;26.20;99.90
14357;DHT22;7262;48.764;9.166;2023-05-07T11:31:10;25.90;99.90
14357;DHT22;7262;48.764;9.166;2023-05-07T11:33:52;25.80;99.90
14357;DHT22;7262;48.764;9.166;2023-05-07T11:36:22;25.80;99.90
14357;DHT22;7262;48.764;9.166;2023-05-07T11:38:48;25.70;99.90
14357;DHT22;7262;48.764;9.166;2023-05-07T11:41:32;25.40;99.90
14357;DHT22;7262;48.764;9.166;2023-05-07T11:43:59;25.50;99.90
14357;DHT22;7262;48.764;9.166;2023-05-07T11:46:27;25.50;99.90
14357;DHT22;7262;48.764;9.166;2023-05-07T11:48:55;25.50;99.90
14357;DHT22;7262;48.764;9.166;2023-05-07T11:51:22;25.40;99.90
14357;DHT22;7262;48.764;9.166;2023-05-07T12:01:51;24.50;99.90
14357;DHT22;7262;48.764;9.166;2023-05-07T12:04:20;24.30;99.90
14357;DHT22;7262;48.764;9.166;2023-05-07T12:06:47;24.10;99.90
14357;DHT22;7262;48.764;9.166;2023-05-07T12:09:16;23.70;99.90
14357;DHT22;7262;48.764;9.166;2023-05-07T12:11:45;23.30;99.90
14357;DHT22;7262;48.764;9.166;2023-05-07T12:14:12;22.90;99.90
14357;DHT22;7262;48.764;9.166;2023-05-07T12:16:41;22.70;99.90
14357;DHT22;7262;48.764;9.166;2023-05-07T12:19:09;22.30;99.90
14357;DHT22;7262;48.764;9.166;2023-05-07T12:21:37;21.90;99.90
14357;DHT22;7262;48.764;9.166;2023-05-07T12:24:06;21.40;99.90
14357;DHT22;7262;48.764;9.166;2023-05-07T12:26:37;20.80;99.90
14357;DHT22;7262;48.764;9.166;2023-05-07T12:29:08;20.10;99.90
14357;DHT22;7262;48.764;9.166;2023-05-07T12:31:35;19.40;99.90
14357;DHT22;7262;48.764;9.166;2023-05-07T12:34:15;18.80;99.90
14357;DHT22;7262;48.764;9.166;2023-05-07T12:36:45;18.30;99.90
14357;DHT22;7262;48.764;9.166;2023-05-07T12:39:15;17.90;99.90
14357;DHT22;7262;48.764;9.166;2023-05-07T12:54:48;15.00;99.90
14357;DHT22;7262;48.764;9.166;2023-05-07T12:57:15;14.80;99.90
14357;DHT22;7262;48.764;9.166;2023-05-07T12:59:45;14.80;99.90
14357;DHT22;7262;48.764;9.166;2023-05-07T13:04:50;15.10;99.90
14357;DHT22;7262;48.764;9.166;2023-05-07T13:07:18;15.10;99.90
14357;DHT22;7262;48.764;9.166;2023-05-07T13:09:45;14.90;99.90
14357;DHT22;7262;48.764;9.166;2023-05-07T13:12:15;14.80;99.90
14357;DHT22;7262;48.764;9.166;2023-05-07T13:14:42;14.80;99.90
14357;DHT22;7262;48.764;9.166;2023-05-07T13:17:09;14.90;99.90
14357;DHT22;7262;48.764;9.166;2023-05-07T13:19:36;14.80;99.90
14357;DHT22;7262;48.764;9.166;2023-05-07T13:22:03;14.70;99.90
14357;DHT22;7262;48.764;9.166;2023-05-07T13:24:30;14.70;99.90
14357;DHT22;7262;48.764;9.166;2023-05-07T13:27:11;14.80;99.90
14357;DHT22;7262;48.764;9.166;2023-05-07T13:29:41;14.80;99.90
14357;DHT22;7262;48.764;9.166;2023-05-07T13:32:08;14.90;99.90
14357;DHT22;7262;48.764;9.166;2023-05-07T13:42:21;14.80;99.90
14357;DHT22;7262;48.764;9.166;2023-05-07T13:50:20;14.80;99.90
14357;DHT22;7262;48.764;9.166;2023-05-07T13:53:01;14.70;99.90
14357;DHT22;7262;48.764;9.166;2023-05-07T13:55:30;14.80;99.90
14357;DHT22;7262;48.764;9.166;2023-05-07T13:58:01;14.80;99.90
14357;DHT22;7262;48.764;9.166;2023-05-07T14:00:37;14.90;99.90
14357;DHT22;7262;48.764;9.166;2023-05-07T14:03:05;14.90;99.90
14357;DHT22;7262;48.764;9.166;2023-05-07T14:05:38;14.70;99.90
14357;DHT22;7262;48.764;9.166;2023-05-07T14:08:05;14.80;99.90
14357;DHT22;7262;48.764;9.166;2023-05-07T15:34:07;15.50;99.90
14357;DHT22;7262;48.764;9.166;2023-05-07T15:39:16;15.60;99.90
14357;DHT22;7262;48.764;9.166;2023-05-07T15:41:48;15.70;99.90
14357;DHT22;7262;48.764;9.166;2023-05-07T15:44:19;15.80;99.90
14357;DHT22;7262;48.764;9.166;2023-05-07T15:46:46;15.80;99.90
14357;DHT22;7262;48.764;9.166;2023-05-07T15:49:31;15.70;99.90
14357;DHT22;7262;48.764;9.166;2023-05-07T15:52:07;15.80;99.90
14357;DHT22;7262;48.764;9.166;2023-05-07T15:54:40;16.00;99.90
14357;DHT22;7262;48.764;9.166;2023-05-07T15:57:07;16.00;99.90
14357;DHT22;7262;48.764;9.166;2023-05-07T15:59:36;16.00;99.90
14357;DHT22;7262;48.764;9.166;2023-05-07T16:02:05;16.10;99.90
14357;DHT22;7262;48.764;9.166;2023-05-07T16:04:47;16.10;99.90
14357;DHT22;7262;48.764;9.166;2023-05-07T16:07:15;16.10;99.90
14357;DHT22;7262;48.764;9.166;2023-05-07T16:09:43;16.10;99.90
14357;DHT22;7262;48.764;9.166;2023-05-07T16:12:19;16.00;99.90
14357;DHT22;7262;48.764;9.166;2023-05-07T16:14:47;16.10;99.90
14357;DHT22;7262;48.764;9.166;2023-05-07T16:17:16;16.10;99.90
14357;DHT22;7262;48.764;9.166;2023-05-07T16:19:46;16.10;99.90
14357;DHT22;7262;48.764;9.166;2023-05-07T16:22:14;16.10;99.90
14357;DHT22;7262;48.764;9.166;2023-05-07T16:24:44;16.00;99.90
14357;DHT22;7262;48.764;9.166;2023-05-07T16:27:11;16.10;99.90
14357;DHT22;7262;48.764;9.166;2023-05-07T16:29:39;16.10;99.90
14357;DHT22;7262;48.764;9.166;2023-05-07T16:32:06;16.10;99.90
14357;DHT22;7262;48.764;9.166;2023-05-07T16:34:34;16.00;99.90
14357;DHT22;7262;48.764;9.166;2023-05-07T16:37:03;16.00;99.90
14357;DHT22;7262;48.764;9.166;2023-05-07T16:39:32;16.10;99.90
14357;DHT22;7262;48.764;9.166;2023-05-07T16:42:06;16.00;99.90
14357;DHT22;7262;48.764;9.166;2023-05-07T16:44:33;15.90;99.90
14357;DHT22;7262;48.764;9.166;2023-05-07T17:21:21;16.30;99.90
14357;DHT22;7262;48.764;9.166;2023-05-07T17:26:34;16.30;99.90
14357;DHT22;7262;48.764;9.166;2023-05-07T17:29:03;16.30;99.90
14357;DHT22;7262;48.764;9.166;2023-05-07T17:31:31;16.30;99.90
14357;DHT22;7262;48.764;9.166;2023-05-07T17:33:58;16.20;99.90
14357;DHT22;7262;48.764;9.166;2023-05-07T17:36:41;16.20;99.90
14357;DHT22;7262;48.764;9.166;2023-05-07T17:39:09;16.10;99.90
14357;DHT22;7262;48.764;9.166;2023-05-07T17:41:37;16.20;99.90
14357;DHT22;7262;48.764;9.166;2023-05-07T17:44:07;16.20;99.90
14357;DHT22;7262;48.764;9.166;2023-05-07T17:46:34;16.20;99.90
14357;DHT22;7262;48.764;9.166;2023-05-07T17:49:01;16.20;99.90
14357;DHT22;7262;48.764;9.166;2023-05-07T17:51:28;16.20;99.90
14357;DHT22;7262;48.764;9.166;2023-05-07T17:53:56;16.20;99.90
14357;DHT22;7262;48.764;9.166;2023-05-07T17:56:31;16.20;99.90
14357;DHT22;7262;48.764;9.166;2023-05-07T17:58:58;16.20;99.90
14357;DHT22;7262;48.764;9.166;2023-05-07T18:01:25;16.20;99.90
14357;DHT22;7262;48.764;9.166;2023-05-07T18:03:55;16.10;99.90
14357;DHT22;7262;48.764;9.166;2023-05-07T18:06:23;16.00;99.90
14357;DHT22;7262;48.764;9.166;2023-05-07T18:08:50;16.10;99.90
14357;DHT22;7262;48.764;9.166;2023-05-07T18:11:23;16.10;99.90
14357;DHT22;7262;48.764;9.166;2023-05-07T18:13:50;16.00;99.90
14357;DHT22;7262;48.764;9.166;2023-05-07T18:16:17;16.00;99.90
14357;DHT22;7262;48.764;9.166;2023-05-07T18:18:47;15.80;99.90
14357;DHT22;7262;48.764;9.166;2023-05-07T18:21:14;16.00;99.90
14357;DHT22;7262;48.764;9.166;2023-05-07T18:23:43;16.10;99.90
14357;DHT22;7262;48.764;9.166;2023-05-07T18:26:11;16.00;99.90
14357;DHT22;7262;48.764;9.166;2023-05-07T18:28:43;16.00;99.90
14357;DHT22;7262;48.764;9.166;2023-05-07T18:36:24;15.90;99.90
14357;DHT22;7262;48.764;9.166;2023-05-07T18:38:54;16.00;99.90
14357;DHT22;7262;48.764;9.166;2023-05-07T18:41:21;16.00;99.90
14357;DHT22;7262;48.764;9.166;2023-05-07T18:56:47;15.80;99.90
14357;DHT22;7262;48.764;9.166;2023-05-07T19:12:45;15.60;99.90
14357;DHT22;7262;48.764;9.166;2023-05-07T19:22:55;15.50;99.90
14357;DHT22;7262;48.764;9.166;2023-05-07T19:25:22;15.50;99.90
14357;DHT22;7262;48.764;9.166;2023-05-07T19:27:50;15.50;99.90
14357;DHT22;7262;48.764;9.166;2023-05-07T19:30:17;15.50;99.90
14357;DHT22;7262;48.764;9.166;2023-05-07T19:32:44;15.40;99.90
14357;DHT22;7262;48.764;9.166;2023-05-07T19:35:11;15.50;99.90
14357;DHT22;7262;48.764;9.166;2023-05-07T19:37:39;15.50;99.90
14357;DHT22;7262;48.764;9.166;2023-05-07T19:40:06;15.50;99.90
14357;DHT22;7262;48.764;9.166;2023-05-07T19:42:38;15.60;99.90
14357;DHT22;7262;48.764;9.166;2023-05-07T19:45:08;15.50;99.90
14357;DHT22;7262;48.764;9.166;2023-05-07T19:47:35;15.50;99.90
14357;DHT22;7262;48.764;9.166;2023-05-07T19:50:02;15.60;99.90
14357;DHT22;7262;48.764;9.166;2023-05-07T19:52:30;15.60;99.90
14357;DHT22;7262;48.764;9.166;2023-05-07T19:54:58;15.50;99.90
14357;DHT22;7262;48.764;9.166;2023-05-07T19:57:25;15.50;99.90
14357;DHT22;7262;48.764;9.166;2023-05-07T19:59:59;15.30;99.90
14357;DHT22;7262;48.764;9.166;2023-05-07T20:02:28;15.40;99.90
14357;DHT22;7262;48.764;9.166;2023-05-07T20:05:10;15.40;99.90
14357;DHT22;7262;48.764;9.166;2023-05-07T20:07:41;15.40;99.90
14357;DHT22;7262;48.764;9.166;2023-05-07T20:10:09;15.40;99.90
14357;DHT22;7262;48.764;9.166;2023-05-07T20:12:36;15.40;99.90
14357;DHT22;7262;48.764;9.166;2023-05-07T20:15:04;15.30;99.90
14357;DHT22;7262;48.764;9.166;2023-05-07T20:17:33;15.40;99.90
14357;DHT22;7262;48.764;9.166;2023-05-07T20:20:00;15.30;99.90
14357;DHT22;7262;48.764;9.166;2023-05-07T20:22:28;15.30;99.90
14357;DHT22;7262;48.764;9.166;2023-05-07T20:24:55;15.30;99.90
14357;DHT22;7262;48.764;9.166;2023-05-07T20:27:22;15.30;99.90
14357;DHT22;7262;48.764;9.166;2023-05-07T20:29:51;15.30;99.90
14357;DHT22;7262;48.764;9.166;2023-05-07T20:32:19;15.30;99.90
14357;DHT22;7262;48.764;9.166;2023-05-07T20:34:49;15.30;99.90
14357;DHT22;7262;48.764;9.166;2023-05-07T20:37:16;15.30;99.90
14357;DHT22;7262;48.764;9.166;2023-05-07T20:39:44;15.30;99.90
14357;DHT22;7262;48.764;9.166;2023-05-07T20:42:11;15.30;99.90
14357;DHT22;7262;48.764;9.166;2023-05-07T20:44:38;15.30;99.90
14357;DHT22;7262;48.764;9.166;2023-05-07T20:47:06;15.40;99.90
14357;DHT22;7262;48.764;9.166;2023-05-07T20:49:34;15.30;99.90
14357;DHT22;7262;48.764;9.166;2023-05-07T20:52:05;15.40;99.90
14357;DHT22;7262;48.764;9.166;2023-05-07T20:54:32;15.40;99.90
14357;DHT22;7262;48.764;9.166;2023-05-07T20:57:04;15.40;99.90
14357;DHT22;7262;48.764;9.166;2023-05-07T20:59:31;15.40;99.90
14357;DHT22;7262;48.764;9.166;2023-05-07T21:01:59;15.30;99.90
14357;DHT22;7262;48.764;9.166;2023-05-07T21:04:28;15.40;99.90
14357;DHT22;7262;48.764;9.166;2023-05-07T21:06:56;15.30;99.90
14357;DHT22;7262;48.764;9.166;2023-05-07T21:09:25;15.40;99.90
14357;DHT22;7262;48.764;9.166;2023-05-07T21:11:54;15.40;99.90
14357;DHT22;7262;48.764;9.166;2023-05-07T21:14:22;15.40;99.90
14357;DHT22;7262;48.764;9.166;2023-05-07T21:16:50;15.40;99.90
14357;DHT22;7262;48.764;9.166;2023-05-07T21:19:17;15.40;99.90